Aérodrome :
LOGIN :

S'inscrire | Disclaimer

   EN    FR    IT 

 










Légende :    VFR   VFR Marginal   IFR   IFR Intensif   IFR Très Intensif
Visi : 
Plafond : 
>= 8 km
>= 3000ft
5 à 8 km
1000 à 3000 ft
1500m à 5 km
500 à 1000 ft
800 à 1500m
200 à 500 ft
< 800m
< 200 ft
Symboles :   Orages  Brouillard  Fortes neiges  Fortes précipitations  Vent > 20 kt
SIGMETs :   Divers  Orages  Givrage  Turbulence  Onde Orograph.  Cendres Volcan.







- Altitude de l'aérodrome : 102 ft
- Code IATA : KEL


EDHK - Holtenau

DERNIER METAR :
  • 291720Z 03007KT 9999 FEW017 07/03 Q1018

METARs EXPIRÉS :
  • 291650Z 04006KT 9999 FEW020 07/03 Q1018
  • 291620Z 06007KT 9999 FEW020 07/03 Q1018
  • 291550Z 03008KT 010V080 9999 SCT022 08/03 Q1018
  • 291520Z 05007KT 010V080 9999 SCT023 07/02 Q1018
  • 291450Z 04010KT 360V070 9999 SCT023 08/02 Q1018

TAF TAF EDHK
Valide du 29 à 15h jusqu'au 29 à 18h UTC


291400Z 2915/2918 04007KT 9999 SCT020
Pas de NOTAMs connus pour ce terrain.



MET'MAP, la Météo Aéronautique d'un coup d'oeil ! - Copyright ORBIFLY Décembre 2007 - Disclaimer

ORBIFLY MET'MAP TEAM :

Programmation & Développement : Alexandra Zaïnal
Conception & Développement : Baudouin d'Aumeries
Co-Programmation & Développement : Marc-Olivier Méhu
Soutien technique & logistique : Manuel Goepfert

Contact : metmap@orbifly.com




SOURCES & CREDITS :

   NOAA